createdAt,value
2022-09-21T00:00:49.522Z,9.41
2022-09-21T00:03:19.398Z,9.42
2022-09-21T00:05:47.155Z,9.38
2022-09-21T00:08:15.741Z,9.32
2022-09-21T00:10:50.543Z,9.30
2022-09-21T00:13:19.647Z,9.28
2022-09-21T00:15:47.324Z,9.36
2022-09-21T00:18:14.922Z,9.31
2022-09-21T00:20:43.502Z,9.28
2022-09-21T00:23:11.129Z,9.27
2022-09-21T00:25:42.594Z,9.31
2022-09-21T00:28:14.523Z,9.22
2022-09-21T00:30:42.098Z,9.18
2022-09-21T00:33:09.746Z,9.15
2022-09-21T00:35:37.392Z,9.16
2022-09-21T00:38:04.934Z,9.12
2022-09-21T00:40:32.957Z,9.10
2022-09-21T00:43:16.748Z,9.16
2022-09-21T00:45:47.901Z,9.05
2022-09-21T00:48:16.262Z,9.08
2022-09-21T00:50:49.329Z,9.00
2022-09-21T00:53:16.933Z,8.93
2022-09-21T00:55:48.202Z,8.85
2022-09-21T00:58:24.269Z,8.90
2022-09-21T01:00:52.302Z,8.86
2022-09-21T01:03:20.304Z,8.80
2022-09-21T01:05:48.010Z,8.69
2022-09-21T01:08:17.336Z,8.61
2022-09-21T01:11:01.385Z,8.59
2022-09-21T01:13:43.187Z,8.69
2022-09-21T01:16:16.512Z,8.62
2022-09-21T01:18:52.917Z,8.63
2022-09-21T01:21:23.551Z,8.65
2022-09-21T01:24:12.368Z,8.62
2022-09-21T01:27:02.251Z,8.53
2022-09-21T01:29:38.118Z,8.46
2022-09-21T01:32:10.219Z,8.41
2022-09-21T01:34:43.995Z,8.38
2022-09-21T01:37:16.820Z,8.32
2022-09-21T01:39:48.686Z,8.25
2022-09-21T01:42:18.761Z,8.27
2022-09-21T01:44:48.262Z,8.25
2022-09-21T01:47:18.027Z,8.21
2022-09-21T01:49:48.021Z,8.13
2022-09-21T01:52:22.229Z,8.15
2022-09-21T01:54:53.587Z,8.24
2022-09-21T01:57:32.721Z,8.16
2022-09-21T02:00:02.675Z,8.13
2022-09-21T02:02:37.973Z,8.10
2022-09-21T02:05:07.426Z,8.11
2022-09-21T02:07:35.596Z,8.10
2022-09-21T02:10:03.476Z,8.05
2022-09-21T02:12:33.104Z,8.09
2022-09-21T02:15:03.917Z,8.08
2022-09-21T02:17:41.026Z,8.03
2022-09-21T02:20:18.458Z,8.02
2022-09-21T02:22:58.454Z,7.98
2022-09-21T02:25:34.844Z,7.95
2022-09-21T02:28:09.440Z,7.91
2022-09-21T02:30:41.345Z,7.85
2022-09-21T02:33:14.035Z,7.81
2022-09-21T02:35:48.751Z,7.75
2022-09-21T02:38:27.002Z,7.74
2022-09-21T02:41:03.762Z,7.68
2022-09-21T02:43:35.519Z,7.66
2022-09-21T02:46:09.516Z,7.65
2022-09-21T02:48:41.842Z,7.63
2022-09-21T02:51:14.705Z,7.79
2022-09-21T02:53:44.266Z,7.70
2022-09-21T02:56:14.159Z,7.75
2022-09-21T02:58:46.470Z,7.71
2022-09-21T03:01:17.226Z,7.81
2022-09-21T03:03:44.944Z,7.71
2022-09-21T03:06:12.548Z,7.62
2022-09-21T03:08:40.800Z,7.59
2022-09-21T03:11:08.995Z,7.63
2022-09-21T03:13:36.803Z,7.58
2022-09-21T03:16:07.045Z,7.54
2022-09-21T03:18:36.052Z,7.57
2022-09-21T03:21:04.257Z,7.53
2022-09-21T03:23:31.989Z,7.42
2022-09-21T03:25:59.656Z,7.36
2022-09-21T03:28:27.282Z,7.33
2022-09-21T03:30:55.185Z,7.35
2022-09-21T03:33:23.006Z,7.37
2022-09-21T03:35:52.802Z,7.30
2022-09-21T03:38:21.501Z,7.37
2022-09-21T03:40:50.032Z,7.30
2022-09-21T03:43:18.532Z,7.24
2022-09-21T03:45:48.189Z,7.24
2022-09-21T03:48:16.599Z,7.16
2022-09-21T03:50:44.499Z,7.11
2022-09-21T03:53:13.954Z,7.06
2022-09-21T03:55:41.661Z,7.18
2022-09-21T03:58:09.908Z,7.11
2022-09-21T04:00:38.106Z,7.13
2022-09-21T04:03:06.039Z,7.03
2022-09-21T04:05:33.873Z,7.06
2022-09-21T04:08:02.404Z,6.97
2022-09-21T04:10:33.692Z,7.05
2022-09-21T04:13:03.388Z,7.02
2022-09-21T04:15:34.247Z,7.00
2022-09-21T04:18:02.706Z,7.02
2022-09-21T04:20:30.252Z,7.02
2022-09-21T04:22:57.884Z,7.01
2022-09-21T04:25:25.433Z,6.94
2022-09-21T04:27:54.491Z,6.98
2022-09-21T04:30:22.087Z,7.01
2022-09-21T04:32:49.708Z,7.03
2022-09-21T04:35:17.414Z,7.00
2022-09-21T04:37:45.056Z,6.92
2022-09-21T04:40:12.835Z,7.09
2022-09-21T04:42:40.456Z,6.96
2022-09-21T04:45:11.002Z,6.94
2022-09-21T04:47:38.606Z,6.87
2022-09-21T04:50:07.328Z,6.78
2022-09-21T04:52:35.120Z,6.89
2022-09-21T04:55:02.684Z,6.78
2022-09-21T04:57:30.412Z,6.69
2022-09-21T04:59:58.047Z,6.67
2022-09-21T05:02:26.954Z,6.69
2022-09-21T05:04:54.774Z,6.77
2022-09-21T05:07:22.377Z,6.85
2022-09-21T05:10:04.449Z,6.77
2022-09-21T05:12:32.868Z,6.85
2022-09-21T05:15:00.691Z,6.78
2022-09-21T05:17:30.256Z,6.75
2022-09-21T05:19:58.018Z,6.73
2022-09-21T05:22:25.628Z,6.69
2022-09-21T05:24:53.195Z,6.77
2022-09-21T05:27:20.828Z,6.79
2022-09-21T05:29:48.996Z,6.94
2022-09-21T05:32:24.668Z,6.96
2022-09-21T05:35:03.541Z,7.06
2022-09-21T05:37:46.511Z,7.07
2022-09-21T05:40:15.083Z,7.12
2022-09-21T05:42:43.210Z,7.15
2022-09-21T05:45:15.168Z,7.18
2022-09-21T05:47:54.058Z,7.39
2022-09-21T05:50:34.235Z,7.41
2022-09-21T05:53:13.591Z,7.79
2022-09-21T05:55:49.435Z,7.83
2022-09-21T05:58:27.230Z,8.55
2022-09-21T06:01:06.068Z,9.52
2022-09-21T06:03:36.086Z,10.03
2022-09-21T06:06:05.380Z,10.73
2022-09-21T06:08:33.026Z,11.22
2022-09-21T06:11:00.713Z,11.71
2022-09-21T06:13:28.408Z,13.34
2022-09-21T06:15:56.029Z,14.01
2022-09-21T06:18:23.644Z,14.29
2022-09-21T06:20:51.196Z,13.80
2022-09-21T06:23:20.292Z,14.25
2022-09-21T06:25:56.056Z,14.05
2022-09-21T06:28:26.524Z,15.72
2022-09-21T06:30:55.634Z,16.34
2022-09-21T06:33:23.696Z,16.90
2022-09-21T06:35:55.638Z,17.03
2022-09-21T06:38:25.726Z,17.53
2022-09-21T06:40:54.097Z,17.14
2022-09-21T06:43:22.267Z,18.09
2022-09-21T06:45:57.475Z,17.77
2022-09-21T06:48:26.797Z,15.56
2022-09-21T06:50:58.304Z,15.46
2022-09-21T06:53:27.830Z,14.82
2022-09-21T06:55:55.584Z,15.24
2022-09-21T06:58:23.154Z,14.37
2022-09-21T07:00:50.898Z,15.66
2022-09-21T07:03:18.680Z,16.35
2022-09-21T07:05:46.393Z,16.08
2022-09-21T07:11:03.752Z,16.78
2022-09-21T07:13:31.606Z,16.96
2022-09-21T07:15:59.444Z,17.45
2022-09-21T07:18:28.102Z,16.22
2022-09-21T07:20:55.721Z,16.83
2022-09-21T07:23:23.350Z,18.29
2022-09-21T07:25:52.475Z,19.18
2022-09-21T07:28:21.724Z,17.57
2022-09-21T07:30:49.837Z,17.94
2022-09-21T07:33:17.425Z,18.08
2022-09-21T07:35:52.016Z,16.74
2022-09-21T07:38:20.034Z,18.54
2022-09-21T07:40:47.711Z,19.27
2022-09-21T07:43:15.964Z,19.76
2022-09-21T07:45:47.484Z,18.78
2022-09-21T07:48:15.099Z,17.14
2022-09-21T07:50:42.705Z,18.65
2022-09-21T07:53:10.215Z,16.93
2022-09-21T07:55:37.770Z,17.96
2022-09-21T07:58:23.216Z,19.17
2022-09-21T08:00:52.160Z,16.94
2022-09-21T08:03:19.743Z,18.21
2022-09-21T08:05:47.742Z,18.11
2022-09-21T08:08:16.831Z,19.02
2022-09-21T08:10:47.476Z,18.39
2022-09-21T08:13:15.158Z,19.32
2022-09-21T08:15:49.882Z,19.10
2022-09-21T08:18:19.684Z,18.42
2022-09-21T08:20:55.346Z,17.01
2022-09-21T08:23:22.994Z,18.42
2022-09-21T08:25:51.068Z,18.67
2022-09-21T08:28:19.755Z,19.06
2022-09-21T08:30:47.289Z,19.18
2022-09-21T08:33:14.787Z,17.20
2022-09-21T08:35:43.796Z,15.80
2022-09-21T08:38:11.336Z,17.04
2022-09-21T08:40:42.046Z,17.12
2022-09-21T08:43:14.065Z,17.14
2022-09-21T08:45:44.944Z,16.47
2022-09-21T08:48:21.826Z,17.67
2022-09-21T08:50:55.539Z,18.11
2022-09-21T08:53:31.650Z,18.38
2022-09-21T08:55:59.242Z,16.98
2022-09-21T08:58:28.983Z,16.40
2022-09-21T09:01:07.881Z,16.19
2022-09-21T09:04:01.753Z,15.95
2022-09-21T09:06:43.146Z,15.79
2022-09-21T09:09:26.536Z,15.19
2022-09-21T09:12:10.707Z,15.04
2022-09-21T09:14:59.891Z,14.63
2022-09-21T09:17:40.240Z,14.75
2022-09-21T09:20:14.254Z,14.43
2022-09-21T09:22:47.508Z,14.67
2022-09-21T09:25:20.567Z,14.83
2022-09-21T09:27:52.073Z,14.81
2022-09-21T09:30:21.466Z,13.71
2022-09-21T09:32:57.061Z,13.65
2022-09-21T09:35:30.437Z,13.62
2022-09-21T09:38:10.102Z,14.14
2022-09-21T09:40:55.972Z,14.75
2022-09-21T09:43:38.287Z,14.80
2022-09-21T09:46:14.118Z,14.94
2022-09-21T09:48:56.451Z,15.37
2022-09-21T09:51:26.776Z,15.21
2022-09-21T09:54:06.858Z,15.71
2022-09-21T09:56:37.194Z,15.53
2022-09-21T09:59:11.301Z,15.42
2022-09-21T10:01:42.630Z,14.81
2022-09-21T10:04:12.199Z,15.22
2022-09-21T10:06:45.356Z,15.50
2022-09-21T10:09:27.389Z,15.73
2022-09-21T10:11:59.412Z,15.73
2022-09-21T10:14:30.583Z,15.41
2022-09-21T10:17:08.317Z,15.45
2022-09-21T10:19:37.762Z,15.62
2022-09-21T10:22:06.528Z,15.64
2022-09-21T10:24:38.872Z,15.45
2022-09-21T10:27:13.540Z,14.55
2022-09-21T10:29:43.709Z,15.07
2022-09-21T10:32:26.983Z,14.88
2022-09-21T10:35:21.632Z,15.03
2022-09-21T10:37:53.551Z,15.55
2022-09-21T10:40:30.789Z,15.20
2022-09-21T10:43:01.268Z,14.83
2022-09-21T10:45:30.959Z,15.11
2022-09-21T10:48:00.617Z,15.74
2022-09-21T10:50:31.323Z,16.07
2022-09-21T10:53:02.604Z,16.15
2022-09-21T10:55:38.481Z,15.74
2022-09-21T10:58:11.113Z,16.18
2022-09-21T11:00:45.410Z,16.28
2022-09-21T11:03:42.912Z,15.75
2022-09-21T11:06:15.455Z,16.28
2022-09-21T11:08:50.138Z,15.82
2022-09-21T11:11:35.544Z,15.31
2022-09-21T11:14:12.082Z,16.00
2022-09-21T11:16:44.865Z,16.21
2022-09-21T11:19:24.070Z,16.56
2022-09-21T11:21:58.779Z,16.81
2022-09-21T11:24:33.966Z,17.01
2022-09-21T11:27:10.121Z,17.04
2022-09-21T11:29:48.972Z,16.49
2022-09-21T11:32:27.563Z,16.11
2022-09-21T11:35:17.030Z,15.97
2022-09-21T11:37:55.717Z,16.55
2022-09-21T11:40:35.751Z,16.28
2022-09-21T11:43:20.357Z,16.05
2022-09-21T11:46:01.391Z,16.24
2022-09-21T11:48:45.538Z,16.71
2022-09-21T11:51:38.302Z,16.74
2022-09-21T11:54:37.971Z,16.74
2022-09-21T11:57:16.936Z,16.60
2022-09-21T12:00:00.714Z,16.59
2022-09-21T12:05:32.969Z,17.35
2022-09-21T12:08:19.904Z,16.71
2022-09-21T12:10:57.191Z,16.90
2022-09-21T12:13:34.597Z,16.81
2022-09-21T12:16:12.562Z,17.00
2022-09-21T12:18:48.226Z,16.66
2022-09-21T12:21:22.292Z,17.03
2022-09-21T12:23:53.896Z,16.99
2022-09-21T12:26:28.061Z,17.36
2022-09-21T12:29:01.440Z,16.92
2022-09-21T12:31:36.770Z,17.24
2022-09-21T12:34:10.685Z,16.95
2022-09-21T12:36:42.478Z,16.75
2022-09-21T12:39:16.961Z,17.30
2022-09-21T12:41:53.696Z,17.24
2022-09-21T12:44:27.741Z,17.69
2022-09-21T12:47:09.163Z,17.55
2022-09-21T12:49:42.618Z,17.66
2022-09-21T12:52:14.835Z,17.53
2022-09-21T12:54:48.381Z,17.45
2022-09-21T12:57:45.463Z,17.13
2022-09-21T13:00:16.889Z,17.95
2022-09-21T13:02:50.786Z,18.09
2022-09-21T13:05:32.680Z,18.11
2022-09-21T13:08:13.252Z,18.08
2022-09-21T13:10:44.528Z,17.84
2022-09-21T13:13:24.275Z,17.76
2022-09-21T13:15:53.546Z,16.68
2022-09-21T13:18:29.728Z,16.93
2022-09-21T13:21:01.307Z,17.13
2022-09-21T13:23:36.629Z,17.49
2022-09-21T13:26:07.985Z,17.71
2022-09-21T13:29:06.243Z,17.87
2022-09-21T13:31:43.163Z,17.93
2022-09-21T13:34:23.841Z,18.19
2022-09-21T13:37:30.097Z,18.29
2022-09-21T13:40:43.321Z,18.32
2022-09-21T13:43:22.288Z,17.45
2022-09-21T13:45:56.457Z,18.07
2022-09-21T13:48:29.999Z,18.42
2022-09-21T13:51:02.308Z,18.25
2022-09-21T13:53:40.541Z,17.91
2022-09-21T13:56:16.683Z,17.56
2022-09-21T13:58:47.082Z,17.62
2022-09-21T14:01:42.486Z,17.11
2022-09-21T14:04:20.356Z,17.66
2022-09-21T14:06:54.154Z,17.19
2022-09-21T14:09:27.571Z,17.20
2022-09-21T14:11:58.815Z,17.21
2022-09-21T14:14:31.341Z,17.34
2022-09-21T14:17:00.648Z,17.31
2022-09-21T14:20:09.587Z,17.07
2022-09-21T14:22:45.355Z,17.05
2022-09-21T14:25:52.184Z,17.23
2022-09-21T14:28:29.600Z,16.91
2022-09-21T14:31:02.628Z,17.04
2022-09-21T14:33:35.975Z,17.34
2022-09-21T14:36:10.249Z,17.21
2022-09-21T14:38:52.258Z,16.87
2022-09-21T14:41:24.259Z,17.05
2022-09-21T14:43:55.461Z,17.10
2022-09-21T14:46:40.345Z,17.22
2022-09-21T14:49:31.705Z,17.26
2022-09-21T14:52:22.438Z,17.17
2022-09-21T14:55:09.175Z,17.04
2022-09-21T14:58:00.620Z,17.33
2022-09-21T15:00:39.582Z,17.22
2022-09-21T15:03:31.927Z,17.42
2022-09-21T15:06:29.549Z,17.58
2022-09-21T15:09:26.832Z,17.44
2022-09-21T15:12:02.596Z,17.61
2022-09-21T15:14:37.425Z,17.87
2022-09-21T15:17:24.896Z,18.09
2022-09-21T15:19:53.127Z,17.87
2022-09-21T15:22:22.304Z,17.63
2022-09-21T15:24:51.750Z,18.00
2022-09-21T15:27:23.961Z,18.38
2022-09-21T15:29:55.142Z,18.50
2022-09-21T15:32:31.141Z,18.56
2022-09-21T15:35:01.249Z,18.29
2022-09-21T15:37:30.390Z,18.47
2022-09-21T15:40:02.269Z,18.73
2022-09-21T15:42:31.405Z,18.15
2022-09-21T15:45:16.015Z,18.40
2022-09-21T15:47:45.195Z,18.40
2022-09-21T15:50:14.718Z,18.40
2022-09-21T15:52:47.985Z,18.34
2022-09-21T15:55:21.294Z,18.21
2022-09-21T15:57:53.095Z,17.82
2022-09-21T16:00:24.151Z,17.78
2022-09-21T16:03:04.521Z,17.56
2022-09-21T16:05:36.191Z,17.46
2022-09-21T16:08:30.481Z,17.11
2022-09-21T16:11:23.075Z,17.02
2022-09-21T16:14:23.001Z,16.63
2022-09-21T16:17:26.843Z,16.55
2022-09-21T16:20:26.299Z,16.67
2022-09-21T16:23:06.323Z,16.70
2022-09-21T16:25:37.574Z,16.35
2022-09-21T16:28:07.294Z,16.19
2022-09-21T16:30:48.712Z,16.11
2022-09-21T16:33:37.631Z,16.06
2022-09-21T16:36:06.064Z,16.13
2022-09-21T16:38:33.812Z,16.13
2022-09-21T16:41:03.521Z,16.11
2022-09-21T16:43:31.317Z,16.05
2022-09-21T16:46:02.234Z,16.04
2022-09-21T16:48:29.830Z,15.82
2022-09-21T16:50:57.559Z,15.74
2022-09-21T16:53:26.208Z,15.70
2022-09-21T16:55:54.341Z,15.68
2022-09-21T16:58:22.767Z,15.65
2022-09-21T17:00:56.191Z,15.61
2022-09-21T17:03:25.485Z,15.58
2022-09-21T17:05:53.057Z,15.48
2022-09-21T17:08:20.855Z,15.42
2022-09-21T17:10:49.490Z,15.37
2022-09-21T17:13:19.173Z,15.33
2022-09-21T17:15:49.012Z,15.27
2022-09-21T17:18:17.011Z,15.34
2022-09-21T17:20:46.952Z,15.23
2022-09-21T17:23:15.117Z,15.15
2022-09-21T17:25:43.086Z,14.90
2022-09-21T17:28:15.621Z,14.82
2022-09-21T17:30:45.887Z,14.86
2022-09-21T17:33:13.497Z,14.70
2022-09-21T17:35:42.955Z,14.47
2022-09-21T17:38:14.547Z,14.35
2022-09-21T17:40:43.464Z,14.19
2022-09-21T17:43:25.661Z,14.14
2022-09-21T17:46:00.838Z,14.10
2022-09-21T17:48:33.794Z,14.09
2022-09-21T17:51:02.370Z,14.14
2022-09-21T17:53:41.808Z,14.22
2022-09-21T17:56:26.775Z,14.05
2022-09-21T17:59:01.550Z,13.98
2022-09-21T18:01:33.679Z,14.11
2022-09-21T18:04:01.825Z,14.26
2022-09-21T18:06:30.121Z,14.16
2022-09-21T18:08:59.748Z,14.16
2022-09-21T18:12:03.444Z,14.10
2022-09-21T18:14:40.291Z,14.12
2022-09-21T18:17:20.723Z,14.16
2022-09-21T18:20:03.656Z,14.23
2022-09-21T18:22:41.958Z,14.25
2022-09-21T18:25:16.861Z,14.28
2022-09-21T18:27:48.540Z,14.32
2022-09-21T18:30:17.411Z,14.28
2022-09-21T18:32:56.959Z,14.28
2022-09-21T18:35:38.871Z,14.12
2022-09-21T18:38:18.084Z,14.10
2022-09-21T18:40:59.142Z,13.96
2022-09-21T18:43:35.245Z,13.84
2022-09-21T18:46:06.474Z,13.76
2022-09-21T18:48:50.798Z,13.66
2022-09-21T18:51:24.886Z,13.55
2022-09-21T18:53:56.139Z,13.41
2022-09-21T18:56:26.476Z,13.28
2022-09-21T18:58:54.540Z,13.22
2022-09-21T19:01:29.184Z,13.15
2022-09-21T19:03:57.334Z,13.06
2022-09-21T19:06:42.648Z,13.04
2022-09-21T19:09:21.254Z,13.03
2022-09-21T19:11:56.173Z,12.97
2022-09-21T19:14:34.436Z,12.91
2022-09-21T19:17:12.754Z,12.83
2022-09-21T19:19:52.456Z,12.77
2022-09-21T19:22:29.823Z,12.66
2022-09-21T19:25:03.965Z,12.60
2022-09-21T19:27:39.379Z,12.55
2022-09-21T19:30:09.475Z,12.56
2022-09-21T19:32:42.260Z,12.58
2022-09-21T19:35:17.113Z,12.61
2022-09-21T19:37:45.796Z,12.58
2022-09-21T19:40:14.419Z,12.59
2022-09-21T19:42:56.231Z,12.63
2022-09-21T19:45:29.059Z,12.63
2022-09-21T19:48:03.875Z,12.57
2022-09-21T19:50:41.035Z,12.48
2022-09-21T19:53:28.902Z,12.37
2022-09-21T19:56:16.549Z,12.31
2022-09-21T19:59:03.511Z,12.25
2022-09-21T20:01:35.367Z,12.21
2022-09-21T20:04:05.347Z,12.17
2022-09-21T20:06:39.786Z,12.19
2022-09-21T20:09:13.853Z,12.11
2022-09-21T20:11:48.210Z,12.05
2022-09-21T20:14:26.792Z,12.03
2022-09-21T20:16:56.810Z,12.02
2022-09-21T20:19:37.648Z,11.98
2022-09-21T20:22:11.134Z,12.00
2022-09-21T20:24:47.686Z,11.96
2022-09-21T20:27:26.326Z,12.01
2022-09-21T20:29:55.262Z,12.01
2022-09-21T20:32:23.839Z,11.96
2022-09-21T20:34:51.420Z,11.99
2022-09-21T20:37:19.292Z,11.85
2022-09-21T20:39:47.436Z,11.82
2022-09-21T20:42:20.634Z,11.71
2022-09-21T20:44:48.229Z,11.64
2022-09-21T20:47:18.810Z,11.61
2022-09-21T20:49:47.696Z,11.65
2022-09-21T20:52:16.704Z,11.51
2022-09-21T20:54:49.069Z,11.33
2022-09-21T20:57:17.496Z,11.30
2022-09-21T20:59:45.521Z,11.29
2022-09-21T21:02:14.219Z,11.32
2022-09-21T21:04:43.411Z,11.25
2022-09-21T21:07:10.967Z,11.13
2022-09-21T21:09:38.568Z,11.28
2022-09-21T21:12:06.814Z,11.17
2022-09-21T21:14:34.620Z,11.19
2022-09-21T21:17:02.368Z,11.09
2022-09-21T21:19:31.508Z,11.13
2022-09-21T21:22:00.400Z,10.93
2022-09-21T21:24:44.030Z,10.89
2022-09-21T21:27:16.227Z,10.77
2022-09-21T21:29:45.311Z,10.74
2022-09-21T21:32:13.343Z,10.74
2022-09-21T21:34:41.279Z,10.75
2022-09-21T21:37:11.185Z,10.75
2022-09-21T21:39:38.869Z,10.68
2022-09-21T21:42:06.995Z,10.62
2022-09-21T21:44:34.577Z,10.61
2022-09-21T21:47:15.485Z,10.67
2022-09-21T21:49:50.098Z,10.60
2022-09-21T21:52:19.117Z,10.46
2022-09-21T21:54:46.749Z,10.42
2022-09-21T21:57:14.937Z,10.36
2022-09-21T21:59:43.100Z,10.34
2022-09-21T22:02:11.198Z,10.35
2022-09-21T22:04:38.866Z,10.42
2022-09-21T22:07:06.586Z,10.25
2022-09-21T22:09:35.441Z,10.14
2022-09-21T22:12:03.986Z,10.07
2022-09-21T22:14:31.846Z,10.09
2022-09-21T22:16:59.811Z,10.05
2022-09-21T22:19:27.564Z,9.98
2022-09-21T22:21:55.124Z,9.83
2022-09-21T22:24:23.247Z,9.75
2022-09-21T22:26:52.196Z,9.81
2022-09-21T22:29:20.166Z,9.79
2022-09-21T22:31:50.429Z,9.77
2022-09-21T22:34:18.783Z,9.75
2022-09-21T22:36:46.642Z,9.72
2022-09-21T22:39:14.224Z,9.65
2022-09-21T22:41:42.859Z,9.67
2022-09-21T22:44:12.612Z,9.61
2022-09-21T22:46:40.510Z,9.59
2022-09-21T22:49:08.360Z,9.72
2022-09-21T22:51:36.130Z,9.58
2022-09-21T22:54:03.810Z,9.60
2022-09-21T22:56:34.133Z,9.60
2022-09-21T22:59:04.067Z,9.54
2022-09-21T23:01:37.626Z,9.48
2022-09-21T23:04:07.282Z,9.46
2022-09-21T23:06:38.178Z,9.36
2022-09-21T23:09:08.370Z,9.33
2022-09-21T23:11:37.862Z,9.34
2022-09-21T23:14:06.206Z,9.30
2022-09-21T23:16:35.726Z,9.36
2022-09-21T23:19:03.352Z,9.41
2022-09-21T23:21:31.837Z,9.39
2022-09-21T23:24:01.890Z,9.40
2022-09-21T23:26:31.327Z,9.34
2022-09-21T23:29:00.514Z,9.29
2022-09-21T23:31:28.947Z,9.19
2022-09-21T23:33:59.790Z,9.22
2022-09-21T23:36:29.210Z,9.15
2022-09-21T23:38:57.774Z,9.04
2022-09-21T23:41:27.428Z,9.05
2022-09-21T23:43:55.440Z,9.09
2022-09-21T23:46:24.596Z,8.97
2022-09-21T23:48:52.843Z,8.78
2022-09-21T23:51:22.039Z,8.76
2022-09-21T23:53:50.060Z,8.68
2022-09-21T23:56:19.308Z,8.68
2022-09-21T23:58:47.534Z,8.67
